Arctic Taglu — CY8968 — position and weather

sailwx.info

Track history (hours):
 
Tides and Currents Weather Stations Pressure Air Temp Water Temp Dewpoint Dewpoint Depression Visibility Wind Speed Wind Dir Waves Ship Positions

Arctic Taglu

Last reported at 2017-Aug-14 22:28 UTC. Time now 2017-Aug-16 13:12 UTC.
Position N 49°18' W 123°01'.

Length 33 m; draft 6 m.

Type: Tug. MMSI: 316003483.

Date/timePositionNaut miles runAvg speedWind from/ knotsBaromVisibWave heightAir tempDewpointWater temp
2017-Aug-14 22:28N 49°18' W 123°01'0 0.7
2017-Aug-14 22:00N 49°18' W 123°01'5 9.1
2017-Aug-14 21:30N 49°19' W 123°08'510.3
2017-Aug-14 21:00N 49°20' W 123°16'510.3
2017-Aug-14 20:30N 49°20' W 123°24'4 8.4
2017-Aug-14 20:00N 49°24' W 123°25'5 9.9
2017-Aug-14 19:30N 49°28' W 123°28'1 1.3
2017-Aug-14 19:00N 49°28' W 123°29'0 0.3
2017-Aug-14 18:30N 49°28' W 123°29'1 1.2
2017-Aug-14 18:01N 49°28' W 123°28'2 3.7
2017-Aug-14 17:31N 49°26' W 123°27'3 5.9
2017-Aug-14 17:00N 49°24' W 123°26'3 6.3
2017-Aug-14 16:30N 49°23' W 123°30'3 5.8
2017-Aug-14 16:01N 49°23' W 123°35'3 5.9
2017-Aug-14 15:30N 49°24' W 123°39'3 6.2
2017-Aug-14 15:01N 49°24' W 123°44'3 6.4
2017-Aug-14 14:30N 49°25' W 123°49'3 6.4
2017-Aug-14 14:00N 49°25' W 123°54'3 6.6
2017-Aug-14 13:31N 49°26' W 123°58'4 7.0
2017-Aug-14 13:00N 49°28' W 124°03'3 6.7
2017-Aug-14 12:30N 49°29' W 124°08'3 6.9
2017-Aug-14 12:01N 49°31' W 124°12'4 7.2
2017-Aug-14 11:30N 49°32' W 124°18'4 7.1
2017-Aug-14 11:00N 49°34' W 124°22'3 7.0
2017-Aug-14 10:31N 49°36' W 124°27'3 6.9
2017-Aug-14 10:00N 49°38' W 124°31'3 6.9
2017-Aug-14 09:31N 49°40' W 124°36'3 6.8
2017-Aug-14 09:00N 49°42' W 124°40'3 6.6
2017-Aug-14 08:30N 49°44' W 124°44'3 6.5
2017-Aug-14 08:00N 49°46' W 124°48'3 6.6
2017-Aug-14 07:31N 49°48' W 124°52'3 6.8
2017-Aug-14 07:00N 49°50' W 124°56'3 6.9
2017-Aug-14 06:30N 49°52' W 125°00'4 7.0
2017-Aug-14 06:00N 49°54' W 125°05'4 8.1
2017-Aug-14 05:30N 49°57' W 125°09'3 6.4
2017-Aug-14 05:00N 49°59' W 125°12'4 7.7
2017-Aug-14 04:31N 50°03' W 125°15'4 8.1
2017-Aug-14 04:00N 50°07' W 125°18'4 7.6
2017-Aug-14 03:30N 50°09' W 125°21'3 5.4
2017-Aug-14 03:00N 50°12' W 125°22'0 0.7
2017-Aug-14 02:30N 50°12' W 125°23'1 1.0
2017-Aug-14 02:00N 50°12' W 125°22'2 4.5
2017-Aug-14 01:30N 50°14' W 125°23'2 4.5
2017-Aug-14 01:00N 50°17' W 125°24'3 5.6
2017-Aug-14 00:30N 50°19' W 125°25'3 4.2
2017-Aug-13 23:51N 50°21' W 125°29'3 6.8
2017-Aug-13 23:25N 50°22' W 125°33'3 6.1
2017-Aug-13 22:57N 50°22' W 125°38'3 5.8
2017-Aug-13 22:30N 50°22' W 125°42'3 5.7
2017-Aug-13 22:00N 50°22' W 125°46'21 4.3
2017-Aug-13 17:03N 50°29' W 126°18'1 6.0
2017-Aug-13 16:51N 50°29' W 126°20'2 6.1
2017-Aug-13 16:30N 50°30' W 126°23'3 6.3
2017-Aug-13 16:00N 50°30' W 126°28'3 6.3
2017-Aug-13 15:29N 50°30' W 126°33'6 5.7
2017-Aug-13 14:27N 50°33' W 126°41'3 7.0
2017-Aug-13 13:58N 50°36' W 126°44'2 4.7
2017-Aug-13 13:27N 50°37' W 126°47'4 7.2
2017-Aug-13 12:57N 50°40' W 126°51'3 7.2
2017-Aug-13 12:30N 50°41' W 126°55'4 7.0
2017-Aug-13 11:56N 50°43' W 127°01'3 6.7
2017-Aug-13 11:29N 50°44' W 127°05'4 7.4
2017-Aug-13 11:00N 50°47' W 127°09'4 7.2
2017-Aug-13 10:30N 50°49' W 127°14'3 7.0
2017-Aug-13 10:00N 50°51' W 127°18'4 7.2
2017-Aug-13 09:30N 50°53' W 127°22'3 6.9
2017-Aug-13 09:00N 50°56' W 127°27'3 6.5
2017-Aug-13 08:30N 50°58' W 127°30'3 6.2
2017-Aug-13 08:00N 50°60' W 127°35'3 5.8
2017-Aug-13 07:30N 51°02' W 127°37'3 5.9
2017-Aug-13 06:59N 51°04' W 127°41'3 5.8
2017-Aug-13 06:30N 51°06' W 127°44'3 5.9
2017-Aug-13 06:00N 51°08' W 127°48'3 5.8
2017-Aug-13 05:28N 51°10' W 127°51'3 6.1
2017-Aug-13 05:00N 51°13' W 127°51'3 6.1
2017-Aug-13 04:30N 51°16' W 127°52'4 6.0
2017-Aug-13 03:53N 51°20' W 127°52'2 6.1
2017-Aug-13 03:30N 51°22' W 127°52'3 5.9
2017-Aug-13 03:00N 51°25' W 127°51'3 6.1
2017-Aug-13 02:30N 51°28' W 127°51'3 5.9
2017-Aug-13 02:00N 51°31' W 127°51'3 5.7
2017-Aug-13 01:30N 51°34' W 127°52'3 5.5
2017-Aug-13 01:00N 51°36' W 127°54'3 5.5
2017-Aug-13 00:30N 51°39' W 127°55'3 5.7
2017-Aug-13 00:00N 51°42' W 127°55'3 5.5
2017-Aug-12 23:30N 51°45' W 127°56'3 5.7
2017-Aug-12 23:00N 51°47' W 127°56'3 5.8
2017-Aug-12 22:30N 51°50' W 127°57'3 6.0
2017-Aug-12 22:00N 51°53' W 127°57'3 6.1
2017-Aug-12 21:30N 51°56' W 127°57'3 6.5
2017-Aug-12 21:00N 51°60' W 127°56'3 6.4
2017-Aug-12 20:30N 52°03' W 127°56'3 6.5
2017-Aug-12 20:00N 52°05' W 128°00'3 6.3
2017-Aug-12 19:30N 52°05' W 128°05'3 5.6
2017-Aug-12 19:00N 52°07' W 128°08'3 6.3
2017-Aug-12 18:30N 52°10' W 128°08'3 4.8
2017-Aug-12 17:53N 52°13' W 128°09'2 4.6
2017-Aug-12 17:30N 52°14' W 128°12'3 6.2
2017-Aug-12 17:00N 52°15' W 128°16'3 5.8
2017-Aug-12 16:30N 52°15' W 128°21'3 6.0
2017-Aug-12 15:59N 52°15' W 128°26'5 6.6
2017-Aug-12 15:12N 52°15' W 128°34'3 6.5
2017-Aug-12 14:41N 52°14' W 128°40'1 6.2
2017-Aug-12 14:30N 52°14' W 128°42'3 5.8
2017-Aug-12 13:59N 52°16' W 128°45'3 6.2
2017-Aug-12 13:30N 52°19' W 128°47'4 6.8
2017-Aug-12 12:54N 52°23' W 128°49'3 6.8
2017-Aug-12 12:30N 52°26' W 128°50'3 6.7
2017-Aug-12 12:00N 52°29' W 128°52'3 6.4
2017-Aug-12 11:30N 52°32' W 128°52'3 5.9
2017-Aug-12 11:00N 52°35' W 128°53'3 5.6
2017-Aug-12 10:30N 52°37' W 128°55'3 5.3
2017-Aug-12 10:00N 52°40' W 128°57'3 5.1
2017-Aug-12 09:30N 52°41' W 129°00'2 4.9
2017-Aug-12 09:00N 52°43' W 129°03'2 4.5
2017-Aug-12 08:29N 52°45' W 129°06'3 5.7
2017-Aug-12 08:00N 52°47' W 129°09'3 5.6
2017-Aug-12 07:30N 52°49' W 129°12'3 5.9
2017-Aug-12 07:00N 52°51' W 129°15'3 6.3
2017-Aug-12 06:29N 52°54' W 129°19'3 6.5
2017-Aug-12 06:00N 52°56' W 129°23'3 6.5
2017-Aug-12 05:30N 52°58' W 129°26'4 7.1
2017-Aug-12 05:00N 53°01' W 129°30'4 7.1
2017-Aug-12 04:24N 53°05' W 129°34'7 6.4
2017-Aug-12 03:23N 53°11' W 129°37'  
Track history (hours):
 
Tides and Currents Weather Stations Pressure Air Temp Water Temp Dewpoint Dewpoint Depression Visibility Wind Speed Wind Dir Waves Ship Positions

Arctic Taglu

Last reported at 2017-Aug-14 22:28 UTC. Time now 2017-Aug-16 13:12 UTC.
Position N 49°18' W 123°01'.

Length 33 m; draft 6 m.

Type: Tug. MMSI: 316003483.

Date/timePositionNaut miles runAvg speedWind from/ knotsBaromVisibWave heightAir tempDewpointWater temp
2017-Aug-14 22:28N 49°18' W 123°01'0 0.7
2017-Aug-14 22:00N 49°18' W 123°01'5 9.1
2017-Aug-14 21:30N 49°19' W 123°08'510.3
2017-Aug-14 21:00N 49°20' W 123°16'510.3
2017-Aug-14 20:30N 49°20' W 123°24'4 8.4
2017-Aug-14 20:00N 49°24' W 123°25'5 9.9
2017-Aug-14 19:30N 49°28' W 123°28'1 1.3
2017-Aug-14 19:00N 49°28' W 123°29'0 0.3
2017-Aug-14 18:30N 49°28' W 123°29'1 1.2
2017-Aug-14 18:01N 49°28' W 123°28'2 3.7
2017-Aug-14 17:31N 49°26' W 123°27'3 5.9
2017-Aug-14 17:00N 49°24' W 123°26'3 6.3
2017-Aug-14 16:30N 49°23' W 123°30'3 5.8
2017-Aug-14 16:01N 49°23' W 123°35'3 5.9
2017-Aug-14 15:30N 49°24' W 123°39'3 6.2
2017-Aug-14 15:01N 49°24' W 123°44'3 6.4
2017-Aug-14 14:30N 49°25' W 123°49'3 6.4
2017-Aug-14 14:00N 49°25' W 123°54'3 6.6
2017-Aug-14 13:31N 49°26' W 123°58'4 7.0
2017-Aug-14 13:00N 49°28' W 124°03'3 6.7
2017-Aug-14 12:30N 49°29' W 124°08'3 6.9
2017-Aug-14 12:01N 49°31' W 124°12'4 7.2
2017-Aug-14 11:30N 49°32' W 124°18'4 7.1
2017-Aug-14 11:00N 49°34' W 124°22'3 7.0
2017-Aug-14 10:31N 49°36' W 124°27'3 6.9
2017-Aug-14 10:00N 49°38' W 124°31'3 6.9
2017-Aug-14 09:31N 49°40' W 124°36'3 6.8
2017-Aug-14 09:00N 49°42' W 124°40'3 6.6
2017-Aug-14 08:30N 49°44' W 124°44'3 6.5
2017-Aug-14 08:00N 49°46' W 124°48'3 6.6
2017-Aug-14 07:31N 49°48' W 124°52'3 6.8
2017-Aug-14 07:00N 49°50' W 124°56'3 6.9
2017-Aug-14 06:30N 49°52' W 125°00'4 7.0
2017-Aug-14 06:00N 49°54' W 125°05'4 8.1
2017-Aug-14 05:30N 49°57' W 125°09'3 6.4
2017-Aug-14 05:00N 49°59' W 125°12'4 7.7
2017-Aug-14 04:31N 50°03' W 125°15'4 8.1
2017-Aug-14 04:00N 50°07' W 125°18'4 7.6
2017-Aug-14 03:30N 50°09' W 125°21'3 5.4
2017-Aug-14 03:00N 50°12' W 125°22'0 0.7
2017-Aug-14 02:30N 50°12' W 125°23'1 1.0
2017-Aug-14 02:00N 50°12' W 125°22'2 4.5
2017-Aug-14 01:30N 50°14' W 125°23'2 4.5
2017-Aug-14 01:00N 50°17' W 125°24'3 5.6
2017-Aug-14 00:30N 50°19' W 125°25'3 4.2
2017-Aug-13 23:51N 50°21' W 125°29'3 6.8
2017-Aug-13 23:25N 50°22' W 125°33'3 6.1
2017-Aug-13 22:57N 50°22' W 125°38'3 5.8
2017-Aug-13 22:30N 50°22' W 125°42'3 5.7
2017-Aug-13 22:00N 50°22' W 125°46'21 4.3
2017-Aug-13 17:03N 50°29' W 126°18'1 6.0
2017-Aug-13 16:51N 50°29' W 126°20'2 6.1
2017-Aug-13 16:30N 50°30' W 126°23'3 6.3
2017-Aug-13 16:00N 50°30' W 126°28'3 6.3
2017-Aug-13 15:29N 50°30' W 126°33'6 5.7
2017-Aug-13 14:27N 50°33' W 126°41'3 7.0
2017-Aug-13 13:58N 50°36' W 126°44'2 4.7
2017-Aug-13 13:27N 50°37' W 126°47'4 7.2
2017-Aug-13 12:57N 50°40' W 126°51'3 7.2
2017-Aug-13 12:30N 50°41' W 126°55'4 7.0
2017-Aug-13 11:56N 50°43' W 127°01'3 6.7
2017-Aug-13 11:29N 50°44' W 127°05'4 7.4
2017-Aug-13 11:00N 50°47' W 127°09'4 7.2
2017-Aug-13 10:30N 50°49' W 127°14'3 7.0
2017-Aug-13 10:00N 50°51' W 127°18'4 7.2
2017-Aug-13 09:30N 50°53' W 127°22'3 6.9
2017-Aug-13 09:00N 50°56' W 127°27'3 6.5
2017-Aug-13 08:30N 50°58' W 127°30'3 6.2
2017-Aug-13 08:00N 50°60' W 127°35'3 5.8
2017-Aug-13 07:30N 51°02' W 127°37'3 5.9
2017-Aug-13 06:59N 51°04' W 127°41'3 5.8
2017-Aug-13 06:30N 51°06' W 127°44'3 5.9
2017-Aug-13 06:00N 51°08' W 127°48'3 5.8
2017-Aug-13 05:28N 51°10' W 127°51'3 6.1
2017-Aug-13 05:00N 51°13' W 127°51'3 6.1
2017-Aug-13 04:30N 51°16' W 127°52'4 6.0
2017-Aug-13 03:53N 51°20' W 127°52'2 6.1
2017-Aug-13 03:30N 51°22' W 127°52'3 5.9
2017-Aug-13 03:00N 51°25' W 127°51'3 6.1
2017-Aug-13 02:30N 51°28' W 127°51'3 5.9
2017-Aug-13 02:00N 51°31' W 127°51'3 5.7
2017-Aug-13 01:30N 51°34' W 127°52'3 5.5
2017-Aug-13 01:00N 51°36' W 127°54'3 5.5
2017-Aug-13 00:30N 51°39' W 127°55'3 5.7
2017-Aug-13 00:00N 51°42' W 127°55'3 5.5
2017-Aug-12 23:30N 51°45' W 127°56'3 5.7
2017-Aug-12 23:00N 51°47' W 127°56'3 5.8
2017-Aug-12 22:30N 51°50' W 127°57'3 6.0
2017-Aug-12 22:00N 51°53' W 127°57'3 6.1
2017-Aug-12 21:30N 51°56' W 127°57'3 6.5
2017-Aug-12 21:00N 51°60' W 127°56'3 6.4
2017-Aug-12 20:30N 52°03' W 127°56'3 6.5
2017-Aug-12 20:00N 52°05' W 128°00'3 6.3
2017-Aug-12 19:30N 52°05' W 128°05'3 5.6
2017-Aug-12 19:00N 52°07' W 128°08'3 6.3
2017-Aug-12 18:30N 52°10' W 128°08'3 4.8
2017-Aug-12 17:53N 52°13' W 128°09'2 4.6
2017-Aug-12 17:30N 52°14' W 128°12'3 6.2
2017-Aug-12 17:00N 52°15' W 128°16'3 5.8
2017-Aug-12 16:30N 52°15' W 128°21'3 6.0
2017-Aug-12 15:59N 52°15' W 128°26'5 6.6
2017-Aug-12 15:12N 52°15' W 128°34'3 6.5
2017-Aug-12 14:41N 52°14' W 128°40'1 6.2
2017-Aug-12 14:30N 52°14' W 128°42'3 5.8
2017-Aug-12 13:59N 52°16' W 128°45'3 6.2
2017-Aug-12 13:30N 52°19' W 128°47'4 6.8
2017-Aug-12 12:54N 52°23' W 128°49'3 6.8
2017-Aug-12 12:30N 52°26' W 128°50'3 6.7
2017-Aug-12 12:00N 52°29' W 128°52'3 6.4
2017-Aug-12 11:30N 52°32' W 128°52'3 5.9
2017-Aug-12 11:00N 52°35' W 128°53'3 5.6
2017-Aug-12 10:30N 52°37' W 128°55'3 5.3
2017-Aug-12 10:00N 52°40' W 128°57'3 5.1
2017-Aug-12 09:30N 52°41' W 129°00'2 4.9
2017-Aug-12 09:00N 52°43' W 129°03'2 4.5
2017-Aug-12 08:29N 52°45' W 129°06'3 5.7
2017-Aug-12 08:00N 52°47' W 129°09'3 5.6
2017-Aug-12 07:30N 52°49' W 129°12'3 5.9
2017-Aug-12 07:00N 52°51' W 129°15'3 6.3
2017-Aug-12 06:29N 52°54' W 129°19'3 6.5
2017-Aug-12 06:00N 52°56' W 129°23'3 6.5
2017-Aug-12 05:30N 52°58' W 129°26'4 7.1
2017-Aug-12 05:00N 53°01' W 129°30'4 7.1
2017-Aug-12 04:24N 53°05' W 129°34'7 6.4
2017-Aug-12 03:23N 53°11' W 129°37'  

Dump ship's entire track history